메인 페이지
METAR-TAF:

METAR-TAF

공항 :

밴쿠버 국제공항

밴쿠버, 브리티시컬럼비아, 캐나다

위도: 49-11N, 경도: 123-10W, 고도: 3m

현재 날씨관측

예보는 22분 전, 07:00시(UTC)에 발표되었습니다.
7kt
온도 8°C
습도 81%
기압 1020 hPa
시정: 48.3km
고도 24000ft 상공 구름 조금

METAR: CYVR 210700Z 08007KT 30SM FEW240 08/05 A3013 RMK CI1 CI TR SLP204

시각: 00:22 (07:22 UTC)

예보

예보는 1 시간 43분 전, 05:39시(UTC)에 발표되었습니다.
예보 대상 시간: 21일 06시부터 22일 12시까지 (UTC)
여러 방향의 바람 3kt
시정: 10km
고도 24000ft 상공 구름 조금
전환 중
21일 06시부터 21일 08시까지 (UTC)
8kt
21일 1400시부터 (UTC)
10kt
시정: 10km
고도 2000ft 상공 구름 조금
고도 4000ft 상공 구름 많음
21일 1700시부터 (UTC)
12kt
시정: 10km
고도 5000ft 상공 구름 조금
고도 14000ft 상공 구름 보통
22일 0200시부터 (UTC)
동남동10kt
시정: 10km
고도 5000ft 상공 구름 조금
고도 9000ft 상공 구름 많음

TAF: CYVR 210539Z 2106/2212 VRB03KT P6SM FEW240 BECMG 2106/2108 09008KT FM211400 09010KT P6SM FEW020 BKN040 FM211700 10012KT P6SM FEW050 SCT140 FM220200 12010KT P6SM FEW050 BKN090 RMK NXT FCST BY 210900Z

4,000개 이상의 공항 관측 자료 및 예보 (METAR 및 TAF 보고).

지도상에서 검색 가능한 기상관측소가 노란 점과 빨간 점으로 표시되어 있습니다.

기상관측소 명을 보려면 표시 위로 마우스를 이동하세요.

날씨 관측과 예보를 보려면 클릭하세요.

지도 변경 : 확대하려면 엑스 표시가 있는 녹색 버튼, 축소하려면 빼기 표시가 있는 녹색 버튼, 다음 페이지의 지도를 보려면 녹색 화살표를 클릭하세요.


METAR-TAF: